sensor_id;sensor_type;location;lat;lon;timestamp;temperature;humidity
79024;DHT22;70306;44.764;37.688;2023-08-07T00:00:04;27.20;69.99
79024;DHT22;70306;44.764;37.688;2023-08-07T00:01:06;27.18;69.45
79024;DHT22;70306;44.764;37.688;2023-08-07T00:02:08;27.15;69.79
79024;DHT22;70306;44.764;37.688;2023-08-07T00:03:10;27.14;69.90
79024;DHT22;70306;44.764;37.688;2023-08-07T00:04:12;27.14;69.97
79024;DHT22;70306;44.764;37.688;2023-08-07T00:05:14;27.14;70.17
79024;DHT22;70306;44.764;37.688;2023-08-07T00:06:18;27.14;70.08
79024;DHT22;70306;44.764;37.688;2023-08-07T00:07:19;27.14;70.11
79024;DHT22;70306;44.764;37.688;2023-08-07T00:08:21;27.14;70.26
79024;DHT22;70306;44.764;37.688;2023-08-07T00:09:22;27.13;70.73
79024;DHT22;70306;44.764;37.688;2023-08-07T00:10:24;27.13;70.62
79024;DHT22;70306;44.764;37.688;2023-08-07T00:11:26;27.11;71.00
79024;DHT22;70306;44.764;37.688;2023-08-07T00:12:29;27.14;70.88
79024;DHT22;70306;44.764;37.688;2023-08-07T00:13:31;27.15;70.66
79024;DHT22;70306;44.764;37.688;2023-08-07T00:14:32;27.17;70.69
79024;DHT22;70306;44.764;37.688;2023-08-07T00:15:34;27.18;70.79
79024;DHT22;70306;44.764;37.688;2023-08-07T00:16:36;27.15;70.69
79024;DHT22;70306;44.764;37.688;2023-08-07T00:17:37;27.13;70.83
79024;DHT22;70306;44.764;37.688;2023-08-07T00:18:39;27.11;70.70
79024;DHT22;70306;44.764;37.688;2023-08-07T00:19:41;27.14;70.91
79024;DHT22;70306;44.764;37.688;2023-08-07T00:20:42;27.21;70.77
79024;DHT22;70306;44.764;37.688;2023-08-07T00:21:44;27.21;70.86
79024;DHT22;70306;44.764;37.688;2023-08-07T00:22:46;27.24;70.73
79024;DHT22;70306;44.764;37.688;2023-08-07T00:23:47;27.24;71.20
79024;DHT22;70306;44.764;37.688;2023-08-07T00:24:49;27.24;71.26
79024;DHT22;70306;44.764;37.688;2023-08-07T00:25:51;27.26;71.58
79024;DHT22;70306;44.764;37.688;2023-08-07T00:26:52;27.28;70.82
79024;DHT22;70306;44.764;37.688;2023-08-07T00:27:54;27.31;71.00
79024;DHT22;70306;44.764;37.688;2023-08-07T00:28:56;27.28;71.33
79024;DHT22;70306;44.764;37.688;2023-08-07T00:29:58;27.31;71.35
79024;DHT22;70306;44.764;37.688;2023-08-07T00:31:00;27.31;71.50
79024;DHT22;70306;44.764;37.688;2023-08-07T00:32:03;27.31;71.01
79024;DHT22;70306;44.764;37.688;2023-08-07T00:33:05;27.33;71.03
79024;DHT22;70306;44.764;37.688;2023-08-07T00:34:07;27.34;71.08
79024;DHT22;70306;44.764;37.688;2023-08-07T00:35:08;27.31;70.81
79024;DHT22;70306;44.764;37.688;2023-08-07T00:36:10;27.27;71.06
79024;DHT22;70306;44.764;37.688;2023-08-07T00:37:16;27.28;71.11
79024;DHT22;70306;44.764;37.688;2023-08-07T00:38:17;27.26;71.13
79024;DHT22;70306;44.764;37.688;2023-08-07T00:39:19;27.28;70.84
79024;DHT22;70306;44.764;37.688;2023-08-07T00:40:20;27.27;70.67
79024;DHT22;70306;44.764;37.688;2023-08-07T00:41:22;27.24;70.89
79024;DHT22;70306;44.764;37.688;2023-08-07T00:42:25;27.26;71.04
79024;DHT22;70306;44.764;37.688;2023-08-07T00:43:27;27.24;70.57
79024;DHT22;70306;44.764;37.688;2023-08-07T00:44:31;27.20;71.03
79024;DHT22;70306;44.764;37.688;2023-08-07T00:45:42;27.20;71.21
79024;DHT22;70306;44.764;37.688;2023-08-07T00:46:44;27.20;71.33
79024;DHT22;70306;44.764;37.688;2023-08-07T00:47:46;27.14;71.04
79024;DHT22;70306;44.764;37.688;2023-08-07T00:48:48;27.10;70.88
79024;DHT22;70306;44.764;37.688;2023-08-07T00:49:49;27.11;71.11
79024;DHT22;70306;44.764;37.688;2023-08-07T00:50:51;27.14;71.52
79024;DHT22;70306;44.764;37.688;2023-08-07T00:51:53;27.13;71.23
79024;DHT22;70306;44.764;37.688;2023-08-07T00:52:55;27.11;71.12
79024;DHT22;70306;44.764;37.688;2023-08-07T00:53:58;27.13;70.95
79024;DHT22;70306;44.764;37.688;2023-08-07T00:55:00;27.07;71.12
79024;DHT22;70306;44.764;37.688;2023-08-07T00:56:01;27.06;71.22
79024;DHT22;70306;44.764;37.688;2023-08-07T00:57:11;27.07;71.46
79024;DHT22;70306;44.764;37.688;2023-08-07T00:58:13;27.06;71.34
79024;DHT22;70306;44.764;37.688;2023-08-07T00:59:15;27.07;71.56
79024;DHT22;70306;44.764;37.688;2023-08-07T01:00:17;27.07;71.57
79024;DHT22;70306;44.764;37.688;2023-08-07T01:01:20;27.06;71.40
79024;DHT22;70306;44.764;37.688;2023-08-07T01:02:21;27.07;71.43
79024;DHT22;70306;44.764;37.688;2023-08-07T01:03:23;27.03;71.58
79024;DHT22;70306;44.764;37.688;2023-08-07T01:04:26;27.04;72.13
79024;DHT22;70306;44.764;37.688;2023-08-07T01:05:27;27.04;72.06
79024;DHT22;70306;44.764;37.688;2023-08-07T01:06:29;27.04;71.76
79024;DHT22;70306;44.764;37.688;2023-08-07T01:07:31;27.06;72.14
79024;DHT22;70306;44.764;37.688;2023-08-07T01:08:33;27.06;72.21
79024;DHT22;70306;44.764;37.688;2023-08-07T01:09:34;27.06;72.10
79024;DHT22;70306;44.764;37.688;2023-08-07T01:13:32;26.97;72.12
79024;DHT22;70306;44.764;37.688;2023-08-07T01:14:49;26.90;72.46
79024;DHT22;70306;44.764;37.688;2023-08-07T01:15:55;26.89;72.40
79024;DHT22;70306;44.764;37.688;2023-08-07T01:17:04;26.86;72.46
79024;DHT22;70306;44.764;37.688;2023-08-07T01:18:07;26.83;72.43
79024;DHT22;70306;44.764;37.688;2023-08-07T01:19:22;26.85;72.29
79024;DHT22;70306;44.764;37.688;2023-08-07T01:20:25;26.80;72.36
79024;DHT22;70306;44.764;37.688;2023-08-07T01:21:27;26.83;72.45
79024;DHT22;70306;44.764;37.688;2023-08-07T01:22:29;26.83;72.49
79024;DHT22;70306;44.764;37.688;2023-08-07T01:23:30;26.80;72.17
79024;DHT22;70306;44.764;37.688;2023-08-07T01:24:32;26.76;72.39
79024;DHT22;70306;44.764;37.688;2023-08-07T01:25:37;26.78;72.58
79024;DHT22;70306;44.764;37.688;2023-08-07T01:28:27;26.78;73.03
79024;DHT22;70306;44.764;37.688;2023-08-07T01:29:36;26.79;72.98
79024;DHT22;70306;44.764;37.688;2023-08-07T01:30:45;26.82;73.29
79024;DHT22;70306;44.764;37.688;2023-08-07T01:31:52;26.85;73.19
79024;DHT22;70306;44.764;37.688;2023-08-07T01:34:10;26.89;73.48
79024;DHT22;70306;44.764;37.688;2023-08-07T01:35:16;26.89;73.63
79024;DHT22;70306;44.764;37.688;2023-08-07T01:36:17;26.89;73.94
79024;DHT22;70306;44.764;37.688;2023-08-07T01:37:20;26.87;73.86
79024;DHT22;70306;44.764;37.688;2023-08-07T01:38:25;26.89;73.85
79024;DHT22;70306;44.764;37.688;2023-08-07T01:39:34;26.93;74.25
79024;DHT22;70306;44.764;37.688;2023-08-07T01:40:37;26.96;74.49
79024;DHT22;70306;44.764;37.688;2023-08-07T01:41:41;26.97;74.16
79024;DHT22;70306;44.764;37.688;2023-08-07T01:42:43;27.02;74.53
79024;DHT22;70306;44.764;37.688;2023-08-07T01:43:45;26.99;74.04
79024;DHT22;70306;44.764;37.688;2023-08-07T01:44:47;26.99;73.88
79024;DHT22;70306;44.764;37.688;2023-08-07T01:45:49;26.97;73.94
79024;DHT22;70306;44.764;37.688;2023-08-07T01:46:51;27.00;73.72
79024;DHT22;70306;44.764;37.688;2023-08-07T01:47:53;27.00;73.77
79024;DHT22;70306;44.764;37.688;2023-08-07T01:48:55;27.02;73.58
79024;DHT22;70306;44.764;37.688;2023-08-07T01:49:57;27.02;73.50
79024;DHT22;70306;44.764;37.688;2023-08-07T01:50:58;26.99;73.47
79024;DHT22;70306;44.764;37.688;2023-08-07T01:52:00;27.00;73.82
79024;DHT22;70306;44.764;37.688;2023-08-07T01:53:03;26.97;73.84
79024;DHT22;70306;44.764;37.688;2023-08-07T01:54:04;27.00;73.63
79024;DHT22;70306;44.764;37.688;2023-08-07T01:55:06;27.03;73.87
79024;DHT22;70306;44.764;37.688;2023-08-07T01:56:08;26.99;73.70
79024;DHT22;70306;44.764;37.688;2023-08-07T01:57:10;26.97;73.50
79024;DHT22;70306;44.764;37.688;2023-08-07T01:58:12;26.97;73.75
79024;DHT22;70306;44.764;37.688;2023-08-07T01:59:13;26.97;73.55
79024;DHT22;70306;44.764;37.688;2023-08-07T02:00:15;27.00;73.85
79024;DHT22;70306;44.764;37.688;2023-08-07T02:01:17;26.96;73.19
79024;DHT22;70306;44.764;37.688;2023-08-07T02:02:18;26.85;73.94
79024;DHT22;70306;44.764;37.688;2023-08-07T02:03:20;26.80;73.19
79024;DHT22;70306;44.764;37.688;2023-08-07T02:04:22;26.82;73.75
79024;DHT22;70306;44.764;37.688;2023-08-07T02:05:27;26.85;73.56
79024;DHT22;70306;44.764;37.688;2023-08-07T02:06:28;26.86;73.41
79024;DHT22;70306;44.764;37.688;2023-08-07T02:07:32;26.86;73.98
79024;DHT22;70306;44.764;37.688;2023-08-07T02:08:37;26.90;73.80
79024;DHT22;70306;44.764;37.688;2023-08-07T02:09:39;26.90;73.29
79024;DHT22;70306;44.764;37.688;2023-08-07T02:10:41;26.92;72.63
79024;DHT22;70306;44.764;37.688;2023-08-07T02:11:42;26.85;73.13
79024;DHT22;70306;44.764;37.688;2023-08-07T02:12:46;26.82;73.15
79024;DHT22;70306;44.764;37.688;2023-08-07T02:13:48;26.79;72.74
79024;DHT22;70306;44.764;37.688;2023-08-07T02:14:50;26.79;73.47
79024;DHT22;70306;44.764;37.688;2023-08-07T02:15:54;26.82;73.02
79024;DHT22;70306;44.764;37.688;2023-08-07T02:16:56;26.79;73.38
79024;DHT22;70306;44.764;37.688;2023-08-07T02:17:58;26.80;73.06
79024;DHT22;70306;44.764;37.688;2023-08-07T02:18:59;26.76;73.16
79024;DHT22;70306;44.764;37.688;2023-08-07T02:20:03;26.73;73.58
79024;DHT22;70306;44.764;37.688;2023-08-07T02:21:05;26.76;73.54
79024;DHT22;70306;44.764;37.688;2023-08-07T02:22:07;26.73;73.68
79024;DHT22;70306;44.764;37.688;2023-08-07T02:23:08;26.78;73.18
79024;DHT22;70306;44.764;37.688;2023-08-07T02:24:10;26.79;73.19
79024;DHT22;70306;44.764;37.688;2023-08-07T02:25:14;26.78;73.15
79024;DHT22;70306;44.764;37.688;2023-08-07T02:26:15;26.76;73.30
79024;DHT22;70306;44.764;37.688;2023-08-07T02:27:17;26.73;73.60
79024;DHT22;70306;44.764;37.688;2023-08-07T02:28:19;26.72;73.78
79024;DHT22;70306;44.764;37.688;2023-08-07T02:29:23;26.71;73.83
79024;DHT22;70306;44.764;37.688;2023-08-07T02:30:25;26.71;73.74
79024;DHT22;70306;44.764;37.688;2023-08-07T02:31:27;26.69;73.79
79024;DHT22;70306;44.764;37.688;2023-08-07T02:32:29;26.66;74.04
79024;DHT22;70306;44.764;37.688;2023-08-07T02:33:32;26.68;73.95
79024;DHT22;70306;44.764;37.688;2023-08-07T02:34:34;26.69;74.31
79024;DHT22;70306;44.764;37.688;2023-08-07T02:35:36;26.71;74.19
79024;DHT22;70306;44.764;37.688;2023-08-07T02:36:37;26.73;73.94
79024;DHT22;70306;44.764;37.688;2023-08-07T02:37:40;26.69;73.81
79024;DHT22;70306;44.764;37.688;2023-08-07T02:38:42;26.69;74.04
79024;DHT22;70306;44.764;37.688;2023-08-07T02:39:44;26.69;74.23
79024;DHT22;70306;44.764;37.688;2023-08-07T02:40:46;26.69;74.41
79024;DHT22;70306;44.764;37.688;2023-08-07T02:41:47;26.72;73.93
79024;DHT22;70306;44.764;37.688;2023-08-07T02:42:49;26.71;74.45
79024;DHT22;70306;44.764;37.688;2023-08-07T02:43:51;26.73;74.70
79024;DHT22;70306;44.764;37.688;2023-08-07T02:44:52;26.73;74.21
79024;DHT22;70306;44.764;37.688;2023-08-07T02:45:54;26.68;74.10
79024;DHT22;70306;44.764;37.688;2023-08-07T02:46:56;26.68;74.11
79024;DHT22;70306;44.764;37.688;2023-08-07T02:47:58;26.68;74.37
79024;DHT22;70306;44.764;37.688;2023-08-07T02:49:00;26.68;74.49
79024;DHT22;70306;44.764;37.688;2023-08-07T02:50:02;26.69;74.66
79024;DHT22;70306;44.764;37.688;2023-08-07T02:51:04;26.68;74.65
79024;DHT22;70306;44.764;37.688;2023-08-07T02:52:09;26.73;74.76
79024;DHT22;70306;44.764;37.688;2023-08-07T02:53:13;26.72;75.08
79024;DHT22;70306;44.764;37.688;2023-08-07T02:54:14;26.69;75.75
79024;DHT22;70306;44.764;37.688;2023-08-07T02:55:16;26.71;76.23
79024;DHT22;70306;44.764;37.688;2023-08-07T02:56:18;26.78;76.20
79024;DHT22;70306;44.764;37.688;2023-08-07T02:57:20;26.79;76.13
79024;DHT22;70306;44.764;37.688;2023-08-07T02:58:22;26.86;76.18
79024;DHT22;70306;44.764;37.688;2023-08-07T02:59:24;26.90;76.11
79024;DHT22;70306;44.764;37.688;2023-08-07T03:00:28;26.93;75.99
79024;DHT22;70306;44.764;37.688;2023-08-07T03:01:30;26.99;75.87
79024;DHT22;70306;44.764;37.688;2023-08-07T03:02:32;27.03;75.81
79024;DHT22;70306;44.764;37.688;2023-08-07T03:03:33;27.06;76.04
79024;DHT22;70306;44.764;37.688;2023-08-07T03:04:35;27.13;76.12
79024;DHT22;70306;44.764;37.688;2023-08-07T03:05:37;27.15;75.95
79024;DHT22;70306;44.764;37.688;2023-08-07T03:06:39;27.17;75.86
79024;DHT22;70306;44.764;37.688;2023-08-07T03:07:41;27.21;75.78
79024;DHT22;70306;44.764;37.688;2023-08-07T03:08:43;27.24;75.63
79024;DHT22;70306;44.764;37.688;2023-08-07T03:09:46;27.28;75.59
79024;DHT22;70306;44.764;37.688;2023-08-07T03:10:56;27.30;75.49
79024;DHT22;70306;44.764;37.688;2023-08-07T03:12:17;27.30;75.28
79024;DHT22;70306;44.764;37.688;2023-08-07T03:13:20;27.33;75.43
79024;DHT22;70306;44.764;37.688;2023-08-07T03:14:22;27.37;75.31
79024;DHT22;70306;44.764;37.688;2023-08-07T03:15:24;27.38;75.47
79024;DHT22;70306;44.764;37.688;2023-08-07T03:16:25;27.42;75.33
79024;DHT22;70306;44.764;37.688;2023-08-07T03:17:27;27.42;75.36
79024;DHT22;70306;44.764;37.688;2023-08-07T03:18:29;27.42;75.33
79024;DHT22;70306;44.764;37.688;2023-08-07T03:19:31;27.45;75.25
79024;DHT22;70306;44.764;37.688;2023-08-07T03:20:36;27.45;75.39
79024;DHT22;70306;44.764;37.688;2023-08-07T03:21:38;27.49;75.31
79024;DHT22;70306;44.764;37.688;2023-08-07T03:22:40;27.52;75.13
79024;DHT22;70306;44.764;37.688;2023-08-07T03:23:41;27.56;75.01
79024;DHT22;70306;44.764;37.688;2023-08-07T03:24:47;27.59;74.88
79024;DHT22;70306;44.764;37.688;2023-08-07T03:25:50;27.63;74.79
79024;DHT22;70306;44.764;37.688;2023-08-07T03:26:58;27.67;74.89
79024;DHT22;70306;44.764;37.688;2023-08-07T03:28:00;27.70;74.71
79024;DHT22;70306;44.764;37.688;2023-08-07T03:29:01;27.73;74.52
79024;DHT22;70306;44.764;37.688;2023-08-07T03:30:04;27.72;74.39
79024;DHT22;70306;44.764;37.688;2023-08-07T03:31:07;27.73;74.42
79024;DHT22;70306;44.764;37.688;2023-08-07T03:32:11;27.79;74.36
79024;DHT22;70306;44.764;37.688;2023-08-07T03:33:13;27.79;74.44
79024;DHT22;70306;44.764;37.688;2023-08-07T03:34:15;27.82;74.31
79024;DHT22;70306;44.764;37.688;2023-08-07T03:35:17;27.79;74.40
79024;DHT22;70306;44.764;37.688;2023-08-07T03:36:20;27.85;74.20
79024;DHT22;70306;44.764;37.688;2023-08-07T03:37:22;27.88;74.26
79024;DHT22;70306;44.764;37.688;2023-08-07T03:38:23;27.94;74.21
79024;DHT22;70306;44.764;37.688;2023-08-07T03:39:28;27.96;73.97
79024;DHT22;70306;44.764;37.688;2023-08-07T03:40:29;27.97;73.81
79024;DHT22;70306;44.764;37.688;2023-08-07T03:41:31;28.01;73.84
79024;DHT22;70306;44.764;37.688;2023-08-07T03:42:34;28.04;73.95
79024;DHT22;70306;44.764;37.688;2023-08-07T03:43:37;28.08;73.42
79024;DHT22;70306;44.764;37.688;2023-08-07T03:44:39;28.11;73.52
79024;DHT22;70306;44.764;37.688;2023-08-07T03:45:42;28.10;73.37
79024;DHT22;70306;44.764;37.688;2023-08-07T03:46:43;28.13;73.30
79024;DHT22;70306;44.764;37.688;2023-08-07T03:47:45;28.17;73.13
79024;DHT22;70306;44.764;37.688;2023-08-07T03:48:46;28.20;73.06
79024;DHT22;70306;44.764;37.688;2023-08-07T03:49:49;28.24;73.06
79024;DHT22;70306;44.764;37.688;2023-08-07T03:50:51;28.24;72.92
79024;DHT22;70306;44.764;37.688;2023-08-07T03:51:53;28.28;73.05
79024;DHT22;70306;44.764;37.688;2023-08-07T03:52:55;28.32;72.49
79024;DHT22;70306;44.764;37.688;2023-08-07T03:53:56;28.38;72.98
79024;DHT22;70306;44.764;37.688;2023-08-07T03:54:58;28.44;72.72
79024;DHT22;70306;44.764;37.688;2023-08-07T03:56:00;28.47;72.09
79024;DHT22;70306;44.764;37.688;2023-08-07T03:57:02;28.48;72.26
79024;DHT22;70306;44.764;37.688;2023-08-07T03:58:03;28.45;71.28
79024;DHT22;70306;44.764;37.688;2023-08-07T03:59:06;28.41;71.94
79024;DHT22;70306;44.764;37.688;2023-08-07T04:00:08;28.42;71.67
79024;DHT22;70306;44.764;37.688;2023-08-07T04:01:16;28.44;71.38
79024;DHT22;70306;44.764;37.688;2023-08-07T04:02:18;28.44;71.86
79024;DHT22;70306;44.764;37.688;2023-08-07T04:03:20;28.47;71.90
79024;DHT22;70306;44.764;37.688;2023-08-07T04:04:22;28.45;71.04
79024;DHT22;70306;44.764;37.688;2023-08-07T04:05:24;28.48;71.34
79024;DHT22;70306;44.764;37.688;2023-08-07T04:06:25;28.51;71.50
79024;DHT22;70306;44.764;37.688;2023-08-07T04:07:28;28.51;71.52
79024;DHT22;70306;44.764;37.688;2023-08-07T04:08:30;28.52;71.07
79024;DHT22;70306;44.764;37.688;2023-08-07T04:09:32;28.55;70.94
79024;DHT22;70306;44.764;37.688;2023-08-07T04:10:33;28.59;71.06
79024;DHT22;70306;44.764;37.688;2023-08-07T04:11:35;28.62;70.73
79024;DHT22;70306;44.764;37.688;2023-08-07T04:12:36;28.66;70.63
79024;DHT22;70306;44.764;37.688;2023-08-07T04:13:39;28.69;70.92
79024;DHT22;70306;44.764;37.688;2023-08-07T04:14:41;28.73;71.49
79024;DHT22;70306;44.764;37.688;2023-08-07T04:15:42;28.76;70.76
79024;DHT22;70306;44.764;37.688;2023-08-07T04:16:44;28.77;70.88
79024;DHT22;70306;44.764;37.688;2023-08-07T04:17:46;28.83;71.33
79024;DHT22;70306;44.764;37.688;2023-08-07T04:18:48;28.89;70.42
79024;DHT22;70306;44.764;37.688;2023-08-07T04:19:49;28.90;71.14
79024;DHT22;70306;44.764;37.688;2023-08-07T04:20:55;28.92;70.75
79024;DHT22;70306;44.764;37.688;2023-08-07T04:21:56;28.93;71.07
79024;DHT22;70306;44.764;37.688;2023-08-07T04:23:01;28.96;71.78
79024;DHT22;70306;44.764;37.688;2023-08-07T04:24:03;28.94;70.86
79024;DHT22;70306;44.764;37.688;2023-08-07T04:25:14;28.99;71.26
79024;DHT22;70306;44.764;37.688;2023-08-07T04:26:16;29.00;70.74
79024;DHT22;70306;44.764;37.688;2023-08-07T04:27:17;29.04;70.92
79024;DHT22;70306;44.764;37.688;2023-08-07T04:28:19;28.99;70.48
79024;DHT22;70306;44.764;37.688;2023-08-07T04:29:21;28.96;70.03
79024;DHT22;70306;44.764;37.688;2023-08-07T04:30:23;28.99;69.83
79024;DHT22;70306;44.764;37.688;2023-08-07T04:31:25;29.04;71.27
79024;DHT22;70306;44.764;37.688;2023-08-07T04:32:26;29.07;70.58
79024;DHT22;70306;44.764;37.688;2023-08-07T04:33:28;29.10;70.76
79024;DHT22;70306;44.764;37.688;2023-08-07T04:34:30;29.10;70.17
79024;DHT22;70306;44.764;37.688;2023-08-07T04:35:32;29.10;69.87
79024;DHT22;70306;44.764;37.688;2023-08-07T04:36:33;29.10;70.19
79024;DHT22;70306;44.764;37.688;2023-08-07T04:37:35;29.12;69.62
79024;DHT22;70306;44.764;37.688;2023-08-07T04:38:37;29.17;69.23
79024;DHT22;70306;44.764;37.688;2023-08-07T04:39:39;29.14;70.33
79024;DHT22;70306;44.764;37.688;2023-08-07T04:40:46;29.20;70.34
79024;DHT22;70306;44.764;37.688;2023-08-07T04:41:50;29.21;70.21
79024;DHT22;70306;44.764;37.688;2023-08-07T04:42:52;29.25;68.97
79024;DHT22;70306;44.764;37.688;2023-08-07T04:43:54;29.25;69.36
79024;DHT22;70306;44.764;37.688;2023-08-07T04:44:56;29.34;69.28
79024;DHT22;70306;44.764;37.688;2023-08-07T04:45:57;29.42;70.13
79024;DHT22;70306;44.764;37.688;2023-08-07T04:46:59;29.44;68.51
79024;DHT22;70306;44.764;37.688;2023-08-07T04:48:01;29.48;68.90
79024;DHT22;70306;44.764;37.688;2023-08-07T04:49:03;29.51;68.68
79024;DHT22;70306;44.764;37.688;2023-08-07T04:50:05;29.51;66.39
79024;DHT22;70306;44.764;37.688;2023-08-07T04:51:06;29.51;68.09
79024;DHT22;70306;44.764;37.688;2023-08-07T04:52:08;29.49;68.06
79024;DHT22;70306;44.764;37.688;2023-08-07T04:53:09;29.54;67.48
79024;DHT22;70306;44.764;37.688;2023-08-07T04:54:11;29.58;67.26
79024;DHT22;70306;44.764;37.688;2023-08-07T04:55:13;29.54;66.40
79024;DHT22;70306;44.764;37.688;2023-08-07T04:56:14;29.51;66.37
79024;DHT22;70306;44.764;37.688;2023-08-07T04:57:16;29.46;65.60
79024;DHT22;70306;44.764;37.688;2023-08-07T04:58:20;29.38;65.42
79024;DHT22;70306;44.764;37.688;2023-08-07T04:59:22;29.35;66.63
79024;DHT22;70306;44.764;37.688;2023-08-07T05:00:24;29.31;66.27
79024;DHT22;70306;44.764;37.688;2023-08-07T05:01:26;29.32;66.60
79024;DHT22;70306;44.764;37.688;2023-08-07T05:02:27;29.32;67.40
79024;DHT22;70306;44.764;37.688;2023-08-07T05:03:29;29.38;68.01
79024;DHT22;70306;44.764;37.688;2023-08-07T05:04:32;29.41;67.00
79024;DHT22;70306;44.764;37.688;2023-08-07T05:05:36;29.45;67.62
79024;DHT22;70306;44.764;37.688;2023-08-07T05:06:38;29.46;66.95
79024;DHT22;70306;44.764;37.688;2023-08-07T05:07:40;29.51;67.32
79024;DHT22;70306;44.764;37.688;2023-08-07T05:08:42;29.51;66.36
79024;DHT22;70306;44.764;37.688;2023-08-07T05:09:43;29.49;66.99
79024;DHT22;70306;44.764;37.688;2023-08-07T05:10:45;29.56;66.23
79024;DHT22;70306;44.764;37.688;2023-08-07T05:11:47;29.62;67.29
79024;DHT22;70306;44.764;37.688;2023-08-07T05:12:48;29.62;67.20
79024;DHT22;70306;44.764;37.688;2023-08-07T05:13:56;29.63;67.67
79024;DHT22;70306;44.764;37.688;2023-08-07T05:14:57;29.65;66.20
79024;DHT22;70306;44.764;37.688;2023-08-07T05:15:59;29.67;66.38
79024;DHT22;70306;44.764;37.688;2023-08-07T05:17:01;29.70;66.56
79024;DHT22;70306;44.764;37.688;2023-08-07T05:18:03;29.73;66.98
79024;DHT22;70306;44.764;37.688;2023-08-07T05:19:04;29.77;66.81
79024;DHT22;70306;44.764;37.688;2023-08-07T05:20:06;29.83;67.03
79024;DHT22;70306;44.764;37.688;2023-08-07T05:21:10;29.82;66.89
79024;DHT22;70306;44.764;37.688;2023-08-07T05:22:11;29.84;66.15
79024;DHT22;70306;44.764;37.688;2023-08-07T05:23:13;29.84;66.78
79024;DHT22;70306;44.764;37.688;2023-08-07T05:24:15;29.89;67.21
79024;DHT22;70306;44.764;37.688;2023-08-07T05:25:19;29.90;66.19
79024;DHT22;70306;44.764;37.688;2023-08-07T05:26:21;29.91;65.77
79024;DHT22;70306;44.764;37.688;2023-08-07T05:27:23;29.87;66.05
79024;DHT22;70306;44.764;37.688;2023-08-07T05:28:25;29.90;66.19
79024;DHT22;70306;44.764;37.688;2023-08-07T05:29:26;29.93;65.70
79024;DHT22;70306;44.764;37.688;2023-08-07T05:30:28;29.93;66.45
79024;DHT22;70306;44.764;37.688;2023-08-07T05:31:30;29.91;66.27
79024;DHT22;70306;44.764;37.688;2023-08-07T05:32:32;29.87;66.42
79024;DHT22;70306;44.764;37.688;2023-08-07T05:33:34;29.91;66.54
79024;DHT22;70306;44.764;37.688;2023-08-07T05:34:36;29.93;66.74
79024;DHT22;70306;44.764;37.688;2023-08-07T05:35:38;29.94;66.86
79024;DHT22;70306;44.764;37.688;2023-08-07T05:36:40;29.97;66.06
79024;DHT22;70306;44.764;37.688;2023-08-07T05:37:42;29.98;66.63
79024;DHT22;70306;44.764;37.688;2023-08-07T05:38:44;30.00;66.55
79024;DHT22;70306;44.764;37.688;2023-08-07T05:39:46;30.04;67.28
79024;DHT22;70306;44.764;37.688;2023-08-07T05:40:48;30.04;66.73
79024;DHT22;70306;44.764;37.688;2023-08-07T05:41:49;30.08;66.41
79024;DHT22;70306;44.764;37.688;2023-08-07T05:42:52;30.08;66.52
79024;DHT22;70306;44.764;37.688;2023-08-07T05:43:56;30.10;66.32
79024;DHT22;70306;44.764;37.688;2023-08-07T05:44:58;30.11;66.60
79024;DHT22;70306;44.764;37.688;2023-08-07T05:46:00;30.15;66.64
79024;DHT22;70306;44.764;37.688;2023-08-07T05:47:02;30.17;66.28
79024;DHT22;70306;44.764;37.688;2023-08-07T05:48:04;30.21;66.47
79024;DHT22;70306;44.764;37.688;2023-08-07T05:49:05;30.23;66.58
79024;DHT22;70306;44.764;37.688;2023-08-07T05:50:07;30.25;66.09
79024;DHT22;70306;44.764;37.688;2023-08-07T05:51:09;30.29;65.29
79024;DHT22;70306;44.764;37.688;2023-08-07T05:52:11;30.41;65.81
79024;DHT22;70306;44.764;37.688;2023-08-07T05:53:12;30.42;65.18
79024;DHT22;70306;44.764;37.688;2023-08-07T05:54:14;30.49;65.23
79024;DHT22;70306;44.764;37.688;2023-08-07T05:55:16;30.56;66.14
79024;DHT22;70306;44.764;37.688;2023-08-07T05:56:17;30.58;65.17
79024;DHT22;70306;44.764;37.688;2023-08-07T05:57:19;30.62;65.35
79024;DHT22;70306;44.764;37.688;2023-08-07T05:58:21;30.70;65.65
79024;DHT22;70306;44.764;37.688;2023-08-07T05:59:22;30.72;65.18
79024;DHT22;70306;44.764;37.688;2023-08-07T06:00:24;30.72;64.91
79024;DHT22;70306;44.764;37.688;2023-08-07T06:01:26;30.73;64.88
79024;DHT22;70306;44.764;37.688;2023-08-07T06:02:32;30.75;64.94
79024;DHT22;70306;44.764;37.688;2023-08-07T06:03:33;30.82;63.83
79024;DHT22;70306;44.764;37.688;2023-08-07T06:04:35;30.79;64.40
79024;DHT22;70306;44.764;37.688;2023-08-07T06:05:37;30.77;64.93
79024;DHT22;70306;44.764;37.688;2023-08-07T06:06:38;30.80;64.58
79024;DHT22;70306;44.764;37.688;2023-08-07T06:07:40;30.86;64.66
79024;DHT22;70306;44.764;37.688;2023-08-07T06:08:42;30.87;64.47
79024;DHT22;70306;44.764;37.688;2023-08-07T06:09:44;30.93;64.88
79024;DHT22;70306;44.764;37.688;2023-08-07T06:10:45;31.00;64.36
79024;DHT22;70306;44.764;37.688;2023-08-07T06:11:48;30.98;64.12
79024;DHT22;70306;44.764;37.688;2023-08-07T06:12:49;30.98;64.00
79024;DHT22;70306;44.764;37.688;2023-08-07T06:13:51;30.98;64.10
79024;DHT22;70306;44.764;37.688;2023-08-07T06:14:53;31.01;63.86
79024;DHT22;70306;44.764;37.688;2023-08-07T06:15:54;30.96;64.20
79024;DHT22;70306;44.764;37.688;2023-08-07T06:16:56;30.94;63.85
79024;DHT22;70306;44.764;37.688;2023-08-07T06:18:02;30.97;64.03
79024;DHT22;70306;44.764;37.688;2023-08-07T06:19:04;31.07;64.56
79024;DHT22;70306;44.764;37.688;2023-08-07T06:20:07;31.08;63.72
79024;DHT22;70306;44.764;37.688;2023-08-07T06:21:14;31.14;63.92
79024;DHT22;70306;44.764;37.688;2023-08-07T06:22:16;31.17;63.45
79024;DHT22;70306;44.764;37.688;2023-08-07T06:23:18;31.14;63.36
79024;DHT22;70306;44.764;37.688;2023-08-07T06:24:20;31.21;62.57
79024;DHT22;70306;44.764;37.688;2023-08-07T06:25:22;31.27;62.84
79024;DHT22;70306;44.764;37.688;2023-08-07T06:26:23;31.25;62.45
79024;DHT22;70306;44.764;37.688;2023-08-07T06:27:25;31.31;63.37
79024;DHT22;70306;44.764;37.688;2023-08-07T06:28:26;31.29;63.05
79024;DHT22;70306;44.764;37.688;2023-08-07T06:29:28;31.34;62.93
79024;DHT22;70306;44.764;37.688;2023-08-07T06:30:32;31.39;61.84
79024;DHT22;70306;44.764;37.688;2023-08-07T06:31:34;31.41;62.11
79024;DHT22;70306;44.764;37.688;2023-08-07T06:32:36;31.61;62.47
79024;DHT22;70306;44.764;37.688;2023-08-07T06:33:38;31.66;61.71